Time;durP1;ratioP1;P1;durP2;ratioP2;P2;SDS_P1;SDS_P2;PMS_P1;PMS_P2;Temp;Humidity;BMP_temperature;BMP_pressure;BME280_temperature;BME280_humidity;BME280_pressure;Samples;Min_cycle;Max_cycle;Signal;HPM_P1;HPM_P2
2022/10/25 00:02:16;;;;;;;9.55;1.75;;;;;;;12.41;100.00;100988.25;4985353;28;20080;-77
2022/10/25 00:04:41;;;;;;;5.13;1.20;;;;;;;12.46;100.00;100996.38;5000037;28;20040;-77
2022/10/25 00:07:07;;;;;;;11.48;1.33;;;;;;;12.49;100.00;100996.06;4995675;28;20042;-77
2022/10/25 00:09:33;;;;;;;15.48;1.77;;;;;;;12.48;100.00;100998.81;4977391;28;20040;-77
2022/10/25 00:11:58;;;;;;;6.57;1.92;;;;;;;12.49;100.00;100997.81;5005469;28;20626;-79
2022/10/25 00:14:23;;;;;;;10.18;1.27;;;;;;;12.51;100.00;101001.91;5001126;28;20553;-78
2022/10/25 00:16:49;;;;;;;10.70;1.77;;;;;;;12.45;100.00;101000.78;4980402;28;20037;-77
2022/10/25 00:19:14;;;;;;;5.55;1.60;;;;;;;12.51;100.00;100998.47;5000242;28;20038;-77
2022/10/25 00:21:40;;;;;;;10.63;1.25;;;;;;;12.55;100.00;101005.00;5000601;28;20035;-78
2022/10/25 00:24:06;;;;;;;8.20;2.35;;;;;;;12.62;100.00;100998.97;4978975;28;20097;-78
2022/10/25 00:26:31;;;;;;;7.82;1.45;;;;;;;12.56;100.00;100997.00;4996829;28;20538;-78
2022/10/25 00:28:58;;;;;;;11.57;1.27;;;;;;;12.60;100.00;100995.72;4984872;28;20051;-78
2022/10/25 00:31:24;;;;;;;13.10;1.30;;;;;;;12.59;100.00;101001.09;4999270;28;20085;-76
2022/10/25 00:33:50;;;;;;;11.23;1.58;;;;;;;12.60;100.00;101000.09;5006125;28;20045;-77
2022/10/25 00:36:19;;;;;;;6.65;1.35;;;;;;;12.54;100.00;101001.56;4983669;28;20040;-77
2022/10/25 00:38:45;;;;;;;12.15;1.40;;;;;;;12.57;100.00;101001.25;4982918;28;20030;-78
2022/10/25 00:41:13;;;;;;;7.95;1.50;;;;;;;12.62;100.00;101005.94;4984609;28;20041;-78
2022/10/25 00:43:42;;;;;;;11.25;1.25;;;;;;;12.65;100.00;101003.03;4998867;28;20086;-77
2022/10/25 00:46:19;;;;;;;6.18;1.20;;;;;;;12.70;100.00;100997.34;4987011;28;20133;-76
2022/10/25 00:49:16;;;;;;;7.70;1.20;;;;;;;12.66;100.00;101005.47;5001594;28;20038;-77
2022/10/25 00:51:46;;;;;;;8.73;1.27;;;;;;;12.74;100.00;100998.63;5000656;28;20053;-78
2022/10/25 00:54:22;;;;;;;12.13;1.58;;;;;;;12.64;100.00;101007.41;4987809;28;20026;-77
2022/10/25 00:56:50;;;;;;;10.68;1.55;;;;;;;12.66;100.00;101009.84;4991604;28;20030;-77
2022/10/25 00:59:23;;;;;;;14.35;1.15;;;;;;;12.62;100.00;101016.34;4973942;28;20388;-77
2022/10/25 01:01:52;;;;;;;11.65;1.60;;;;;;;12.74;100.00;101022.03;5005073;28;20083;-77
2022/10/25 01:04:20;;;;;;;7.93;1.33;;;;;;;12.69;100.00;101016.50;5001357;28;20065;-76
2022/10/25 01:06:47;;;;;;;6.75;1.27;;;;;;;12.75;100.00;101024.47;5006930;28;20030;-77
2022/10/25 01:09:19;;;;;;;8.73;1.00;;;;;;;12.90;100.00;101019.41;5004175;28;20084;-77
2022/10/25 01:11:48;;;;;;;6.93;1.23;;;;;;;12.80;100.00;101024.78;5006957;28;20038;-76
2022/10/25 01:14:15;;;;;;;9.23;1.42;;;;;;;12.81;100.00;101028.22;4983948;28;20500;-77
2022/10/25 01:16:58;;;;;;;7.55;1.38;;;;;;;12.79;100.00;101028.38;5004592;28;20048;-78
2022/10/25 01:19:58;;;;;;;8.85;1.40;;;;;;;12.85;100.00;101030.31;4989180;28;20124;-79
2022/10/25 01:22:49;;;;;;;11.70;2.72;;;;;;;12.69;100.00;101027.72;5007883;28;20672;-78
2022/10/25 01:25:39;;;;;;;6.53;1.25;;;;;;;12.71;100.00;101032.75;5006970;28;20097;-77
2022/10/25 01:28:23;;;;;;;14.27;1.90;;;;;;;12.67;100.00;101024.47;4989683;28;20038;-77
2022/10/25 01:30:51;;;;;;;9.95;1.83;;;;;;;12.66;100.00;101028.88;4987730;28;20046;-78
2022/10/25 01:33:30;;;;;;;10.30;2.33;;;;;;;12.59;100.00;101027.91;5006649;28;20112;-77
2022/10/25 01:36:23;;;;;;;8.13;1.45;;;;;;;12.50;100.00;101041.88;5007127;28;20480;-77
2022/10/25 01:39:01;;;;;;;4.78;1.02;;;;;;;12.53;100.00;101038.16;4983620;28;20046;-77
2022/10/25 01:41:48;;;;;;;14.70;1.88;;;;;;;12.61;100.00;101035.53;4990324;28;20065;-77
2022/10/25 01:44:35;;;;;;;7.35;1.02;;;;;;;12.49;100.00;101035.06;5006596;28;20121;-77
2022/10/25 01:47:16;;;;;;;8.90;1.67;;;;;;;12.52;100.00;101039.13;4986290;28;20510;-76
2022/10/25 01:50:00;;;;;;;8.68;1.40;;;;;;;12.50;100.00;101031.47;4991772;28;20541;-76
2022/10/25 01:52:26;;;;;;;7.45;1.75;;;;;;;12.51;100.00;101030.50;4993066;28;20038;-78
2022/10/25 01:54:52;;;;;;;5.95;1.30;;;;;;;12.45;100.00;101026.78;4985852;28;20045;-77
2022/10/25 01:57:57;;;;;;;9.32;1.13;;;;;;;12.68;100.00;101026.13;5007507;28;20617;-77
2022/10/25 02:00:24;;;;;;;11.23;1.90;;;;;;;12.57;100.00;101029.84;5006279;28;20081;-77
2022/10/25 02:03:11;;;;;;;9.60;1.13;;;;;;;12.58;100.00;101033.25;4989053;28;20476;-77
2022/10/25 02:06:14;;;;;;;12.90;1.70;;;;;;;12.43;100.00;101039.13;5001418;28;20042;-77
2022/10/25 02:08:50;;;;;;;8.20;1.25;;;;;;;12.39;100.00;101043.00;4984407;28;20136;-77
2022/10/25 02:11:18;;;;;;;11.05;1.00;;;;;;;12.39;100.00;101048.19;5000662;28;20048;-77
2022/10/25 02:14:03;;;;;;;12.20;2.28;;;;;;;12.36;100.00;101050.34;4998671;28;20034;-77
2022/10/25 02:16:35;;;;;;;11.02;1.15;;;;;;;12.33;100.00;101048.84;4970101;28;20108;-77
2022/10/25 02:19:02;;;;;;;5.82;1.48;;;;;;;12.39;100.00;101045.59;5004055;28;20465;-77
2022/10/25 02:21:31;;;;;;;11.32;2.45;;;;;;;12.46;100.00;101045.78;4987680;28;20041;-77
2022/10/25 02:24:00;;;;;;;10.90;2.45;;;;;;;12.59;100.00;101045.31;4987760;28;20030;-78
2022/10/25 02:26:26;;;;;;;14.48;1.50;;;;;;;12.49;100.00;101048.06;5001855;28;20035;-79
2022/10/25 02:28:53;;;;;;;7.80;1.33;;;;;;;12.56;100.00;101046.41;4995464;28;20146;-77
2022/10/25 02:31:21;;;;;;;9.73;1.35;;;;;;;12.60;100.00;101039.94;5001370;28;20056;-82
2022/10/25 02:33:46;;;;;;;8.70;1.38;;;;;;;12.61;100.00;101038.94;5004827;28;20118;-76
2022/10/25 02:36:22;;;;;;;11.23;1.70;;;;;;;12.56;100.00;101048.22;4985862;28;20054;-77
2022/10/25 02:38:49;;;;;;;7.68;1.58;;;;;;;12.52;100.00;101045.13;4999356;28;20041;-78
2022/10/25 02:41:15;;;;;;;10.82;1.73;;;;;;;12.52;100.00;101047.72;4981925;28;20507;-76
2022/10/25 02:43:41;;;;;;;7.82;1.83;;;;;;;12.63;100.00;101049.19;4988706;28;20519;-77
2022/10/25 02:46:26;;;;;;;10.63;2.30;;;;;;;12.61;100.00;101058.94;5005320;28;20046;-76
2022/10/25 02:48:52;;;;;;;12.13;2.08;;;;;;;12.60;100.00;101057.31;4992971;28;20045;-76
2022/10/25 02:51:18;;;;;;;16.25;2.20;;;;;;;12.59;100.00;101061.72;4985220;28;20105;-77
2022/10/25 02:53:45;;;;;;;14.68;2.13;;;;;;;12.71;100.00;101056.19;4998835;28;20040;-76
2022/10/25 02:56:13;;;;;;;7.60;2.00;;;;;;;12.69;100.00;101061.53;5000607;28;20043;-77
2022/10/25 02:58:41;;;;;;;12.77;1.33;;;;;;;12.79;100.00;101069.19;4988814;28;20503;-77
2022/10/25 03:01:06;;;;;;;13.85;1.80;;;;;;;12.76;100.00;101065.13;4979880;28;20038;-77
2022/10/25 03:03:32;;;;;;;10.30;1.58;;;;;;;12.71;100.00;101064.00;4985623;28;20431;-77
2022/10/25 03:05:58;;;;;;;12.45;1.70;;;;;;;12.81;100.00;101069.84;4998830;28;20037;-77
2022/10/25 03:08:25;;;;;;;10.70;1.40;;;;;;;12.94;100.00;101070.16;4986678;28;20434;-80
2022/10/25 03:10:51;;;;;;;12.20;1.98;;;;;;;12.89;100.00;101064.63;4997018;28;20191;-80
2022/10/25 03:13:16;;;;;;;13.40;1.40;;;;;;;12.78;100.00;101067.56;4999879;28;20117;-77
2022/10/25 03:15:43;;;;;;;11.27;2.35;;;;;;;12.87;100.00;101066.59;4984847;28;20054;-77
2022/10/25 03:18:09;;;;;;;10.98;1.40;;;;;;;12.80;100.00;101068.22;5004771;28;20084;-77
2022/10/25 03:20:34;;;;;;;13.90;2.17;;;;;;;12.75;100.00;101075.69;4986615;28;20053;-77
2022/10/25 03:23:00;;;;;;;11.48;1.60;;;;;;;12.87;100.00;101071.00;4989210;28;20109;-77
2022/10/25 03:25:25;;;;;;;7.07;1.38;;;;;;;12.75;100.00;101062.69;5003112;28;20077;-76
2022/10/25 03:27:51;;;;;;;11.98;1.52;;;;;;;12.74;100.00;101072.28;4998671;28;20030;-79
2022/10/25 03:30:17;;;;;;;4.85;1.35;;;;;;;12.78;100.00;101070.97;5004460;28;20434;-78
2022/10/25 03:32:42;;;;;;;4.40;1.13;;;;;;;12.79;100.00;101070.00;4981890;28;20060;-79
2022/10/25 03:35:08;;;;;;;5.25;1.35;;;;;;;12.73;100.00;101075.03;5002451;28;20046;-77
2022/10/25 03:37:33;;;;;;;13.60;2.20;;;;;;;12.73;100.00;101069.84;5002765;28;20026;-78
2022/10/25 03:39:59;;;;;;;7.63;1.13;;;;;;;12.74;100.00;101077.50;4980778;28;20097;-81
2022/10/25 03:42:24;;;;;;;7.85;1.27;;;;;;;12.70;100.00;101081.41;4968913;28;20053;-77
2022/10/25 03:44:50;;;;;;;8.15;1.35;;;;;;;12.77;100.00;101076.34;4983538;28;20045;-77
2022/10/25 03:47:16;;;;;;;9.10;1.70;;;;;;;12.73;100.00;101088.06;4989643;28;20041;-77
2022/10/25 03:49:41;;;;;;;6.90;1.90;;;;;;;12.78;100.00;101085.78;4993784;28;20042;-76
2022/10/25 03:52:07;;;;;;;9.32;1.63;;;;;;;12.83;100.00;101086.13;4990670;28;20034;-77
2022/10/25 03:54:33;;;;;;;8.25;1.15;;;;;;;12.81;100.00;101086.28;5005259;28;20088;-77
2022/10/25 03:56:58;;;;;;;12.13;2.03;;;;;;;12.85;100.00;101094.56;5009728;28;20546;-77
2022/10/25 03:59:25;;;;;;;9.02;1.88;;;;;;;12.75;100.00;101101.72;5001706;28;20037;-77
2022/10/25 04:01:50;;;;;;;11.10;1.98;;;;;;;12.75;100.00;101101.72;5005624;28;20033;-77
2022/10/25 04:04:15;;;;;;;16.38;1.90;;;;;;;12.72;100.00;101102.06;5004990;28;20045;-78
2022/10/25 04:06:41;;;;;;;13.00;1.67;;;;;;;12.70;100.00;101101.41;4987087;28;20038;-77
2022/10/25 04:09:06;;;;;;;6.82;1.17;;;;;;;12.63;100.00;101109.03;4991227;28;20447;-78
2022/10/25 04:11:32;;;;;;;10.65;1.70;;;;;;;12.62;100.00;101103.03;4988463;28;20030;-77
2022/10/25 04:13:58;;;;;;;12.00;1.55;;;;;;;12.71;100.00;101109.03;4993493;28;20069;-78
2022/10/25 04:16:24;;;;;;;9.95;1.92;;;;;;;12.62;100.00;101110.00;4995045;28;20037;-77
2022/10/25 04:18:52;;;;;;;6.90;1.20;;;;;;;12.61;100.00;101116.19;4995002;28;20034;-76
2022/10/25 04:21:18;;;;;;;13.05;2.17;;;;;;;12.60;100.00;101120.59;5002797;28;20046;-78
2022/10/25 04:23:43;;;;;;;13.38;1.83;;;;;;;12.67;100.00;101123.34;5004272;28;20069;-77
2022/10/25 04:26:09;;;;;;;13.43;1.80;;;;;;;12.57;100.00;101126.09;4991732;28;20376;-79
2022/10/25 04:28:34;;;;;;;9.25;2.17;;;;;;;12.58;100.00;101132.94;4985813;28;20053;-77
2022/10/25 04:31:00;;;;;;;6.38;1.40;;;;;;;12.57;100.00;101127.91;5001432;28;20076;-77
2022/10/25 04:33:26;;;;;;;9.55;1.63;;;;;;;12.52;100.00;101132.75;4997493;28;20034;-76
2022/10/25 04:35:55;;;;;;;12.27;1.70;;;;;;;12.53;100.00;101135.19;5000649;28;20034;-78
2022/10/25 04:38:20;;;;;;;10.52;1.60;;;;;;;12.68;100.00;101130.19;4985534;28;20053;-77
2022/10/25 04:40:55;;;;;;;8.73;1.60;;;;;;;12.66;100.00;101135.53;4998810;28;20703;-78
2022/10/25 04:43:20;;;;;;;15.13;2.55;;;;;;;12.71;100.00;101126.44;4999671;28;20037;-77
2022/10/25 04:45:46;;;;;;;12.52;2.78;;;;;;;12.64;100.00;101137.50;4998413;28;20034;-77
2022/10/25 04:48:11;;;;;;;10.07;1.58;;;;;;;12.80;100.00;101128.06;5001804;28;20096;-77
2022/10/25 04:50:37;;;;;;;17.80;1.80;;;;;;;12.73;100.00;101129.69;4999410;28;20048;-77
2022/10/25 04:53:03;;;;;;;10.23;1.83;;;;;;;12.64;100.00;101123.69;5002007;28;20037;-76
2022/10/25 04:55:30;;;;;;;38.90;13.70;;;;;;;12.68;100.00;101129.34;5002303;28;20044;-77
2022/10/25 04:57:55;;;;;;;25.33;13.65;;;;;;;12.62;100.00;101136.84;4984883;28;20034;-77
2022/10/25 05:00:21;;;;;;;15.38;6.18;;;;;;;12.68;100.00;101142.34;5004141;28;20041;-78
2022/10/25 05:02:46;;;;;;;15.25;4.13;;;;;;;12.67;100.00;101125.94;4989024;28;20549;-77
2022/10/25 05:05:12;;;;;;;10.25;6.32;;;;;;;12.64;100.00;101131.47;4984894;28;20043;-77
2022/10/25 05:07:37;;;;;;;12.40;6.65;;;;;;;12.65;100.00;101135.69;4987078;28;20026;-79
2022/10/25 05:10:03;;;;;;;24.92;10.45;;;;;;;12.61;100.00;101132.59;4997175;28;20038;-77
2022/10/25 05:12:28;;;;;;;17.15;4.63;;;;;;;12.58;100.00;101129.50;4986505;28;20092;-77
2022/10/25 05:14:54;;;;;;;15.43;4.95;;;;;;;12.54;100.00;101142.00;4986875;28;20619;-77
2022/10/25 05:17:19;;;;;;;14.45;4.03;;;;;;;12.51;100.00;101144.97;5000630;28;20038;-77
2022/10/25 05:19:45;;;;;;;20.10;7.93;;;;;;;12.50;100.00;101145.91;4997056;28;20026;-77
2022/10/25 05:22:10;;;;;;;15.90;4.63;;;;;;;12.48;100.00;101150.47;4980783;28;20514;-77
2022/10/25 05:24:36;;;;;;;16.63;5.32;;;;;;;12.52;100.00;101148.38;4971357;28;20046;-77
2022/10/25 05:27:03;;;;;;;13.30;3.40;;;;;;;12.50;100.00;101143.31;4987053;28;20044;-77
2022/10/25 05:29:28;;;;;;;8.95;2.10;;;;;;;12.42;100.00;101151.13;4985952;28;20045;-77
2022/10/25 05:31:54;;;;;;;16.92;4.28;;;;;;;12.32;100.00;101164.25;5000907;28;20038;-77
2022/10/25 05:34:19;;;;;;;8.57;2.80;;;;;;;12.30;100.00;101152.38;4981347;28;20065;-76
2022/10/25 05:36:45;;;;;;;15.43;4.10;;;;;;;12.25;100.00;101158.06;4982240;28;20035;-77
2022/10/25 05:39:10;;;;;;;12.52;4.07;;;;;;;12.21;100.00;101157.56;4979091;28;20159;-77
2022/10/25 05:41:36;;;;;;;20.85;4.13;;;;;;;12.20;100.00;101163.72;5003530;28;20045;-77
2022/10/25 05:44:01;;;;;;;20.27;6.90;;;;;;;12.15;100.00;101168.59;4999470;28;20045;-76
2022/10/25 05:46:27;;;;;;;17.83;7.38;;;;;;;12.19;100.00;101166.50;5003959;28;20048;-77
2022/10/25 05:48:52;;;;;;;11.32;4.65;;;;;;;12.23;100.00;101173.00;4991450;28;20037;-76
2022/10/25 05:51:24;;;;;;;15.20;3.63;;;;;;;12.22;100.00;101171.38;5008700;28;20044;-77
2022/10/25 05:53:52;;;;;;;14.60;8.32;;;;;;;12.21;100.00;101185.34;4991580;28;20081;-78
2022/10/25 05:56:19;;;;;;;12.68;5.18;;;;;;;12.13;100.00;101186.13;4990065;28;20065;-77
2022/10/25 05:58:46;;;;;;;7.45;2.60;;;;;;;12.08;100.00;101193.56;5007599;28;20133;-78
2022/10/25 06:01:14;;;;;;;8.38;2.30;;;;;;;12.08;100.00;101198.78;4986258;28;20827;-77
2022/10/25 06:03:39;;;;;;;8.48;2.15;;;;;;;12.04;100.00;101200.06;5006419;28;20034;-77
2022/10/25 06:06:07;;;;;;;11.07;2.35;;;;;;;11.99;100.00;101202.31;4987118;28;20057;-77
2022/10/25 06:08:33;;;;;;;5.43;1.98;;;;;;;11.99;100.00;101199.72;4989874;28;20088;-77
2022/10/25 06:11:11;;;;;;;4.93;1.95;;;;;;;11.97;100.00;101204.25;4998751;28;20453;-77
2022/10/25 06:13:37;;;;;;;8.65;2.95;;;;;;;11.94;100.00;101204.53;5003473;28;20037;-77
2022/10/25 06:16:15;;;;;;;12.13;5.28;;;;;;;11.94;100.00;101204.53;5009526;28;20045;-77
2022/10/25 06:18:41;;;;;;;7.75;3.60;;;;;;;11.93;100.00;101197.72;5004634;28;20068;-77
2022/10/25 06:21:10;;;;;;;9.52;2.67;;;;;;;11.92;100.00;101206.50;5003501;28;20042;-76
2022/10/25 06:23:35;;;;;;;16.27;1.90;;;;;;;11.92;100.00;101207.28;4998379;28;20141;-77
2022/10/25 06:26:06;;;;;;;10.85;1.85;;;;;;;11.87;100.00;101209.53;5003531;28;20822;-77
2022/10/25 06:28:33;;;;;;;4.82;1.67;;;;;;;11.84;100.00;101222.81;4991957;28;20132;-77
2022/10/25 06:31:03;;;;;;;8.60;1.75;;;;;;;11.85;100.00;101230.47;5000131;28;20038;-77
2022/10/25 06:33:29;;;;;;;6.65;1.98;;;;;;;11.81;100.00;101226.56;4992708;28;20042;-76
2022/10/25 06:35:56;;;;;;;10.48;1.75;;;;;;;11.81;100.00;101229.16;4993813;28;20062;-76
2022/10/25 06:38:21;;;;;;;8.45;2.20;;;;;;;11.83;100.00;101234.19;4988651;28;20025;-77
2022/10/25 06:40:47;;;;;;;6.60;1.83;;;;;;;11.82;100.00;101237.75;5008405;28;20196;-77
2022/10/25 06:43:12;;;;;;;8.98;2.30;;;;;;;11.81;100.00;101239.53;4982597;28;20031;-76
2022/10/25 06:45:39;;;;;;;14.88;5.70;;;;;;;11.79;100.00;101244.09;4974972;28;21572;-76
2022/10/25 06:48:05;;;;;;;27.77;10.27;;;;;;;11.80;100.00;101250.88;4988302;28;20136;-76
2022/10/25 06:50:30;;;;;;;14.07;4.20;;;;;;;11.81;100.00;101254.28;5002051;28;20445;-76
2022/10/25 06:52:56;;;;;;;8.05;2.50;;;;;;;11.82;100.00;101258.53;4988290;28;20364;-77
2022/10/25 06:55:22;;;;;;;12.93;2.35;;;;;;;11.82;100.00;101263.72;5004838;28;20060;-76
2022/10/25 06:57:47;;;;;;;11.57;2.90;;;;;;;11.86;100.00;101265.84;5004459;28;20034;-77
2022/10/25 07:00:13;;;;;;;8.43;2.10;;;;;;;11.84;100.00;101275.59;5002126;28;20145;-76
2022/10/25 07:02:39;;;;;;;13.88;2.38;;;;;;;11.96;100.00;101275.38;4991335;28;20037;-76
2022/10/25 07:05:04;;;;;;;13.82;2.75;;;;;;;11.94;100.00;101277.31;4989080;28;20769;-77
2022/10/25 07:07:30;;;;;;;11.60;2.28;;;;;;;12.11;100.00;101286.84;4987292;28;20565;-77
2022/10/25 07:09:55;;;;;;;10.32;2.30;;;;;;;12.17;100.00;101282.81;4999318;28;20038;-79
2022/10/25 07:12:21;;;;;;;11.15;2.15;;;;;;;12.19;100.00;101280.88;5000345;28;20034;-77
2022/10/25 07:14:46;;;;;;;11.93;2.38;;;;;;;12.26;100.00;101287.91;4989325;28;20037;-76
2022/10/25 07:17:11;;;;;;;9.15;2.40;;;;;;;12.34;100.00;101281.09;5004218;28;20441;-77
2022/10/25 07:19:37;;;;;;;11.82;2.72;;;;;;;12.43;100.00;101282.75;4973308;28;20030;-77
2022/10/25 07:22:02;;;;;;;13.57;2.13;;;;;;;12.43;100.00;101285.34;4990026;28;20678;-77
2022/10/25 07:24:28;;;;;;;11.95;3.03;;;;;;;12.38;100.00;101285.03;5005612;28;20033;-79
2022/10/25 07:26:53;;;;;;;11.65;2.97;;;;;;;12.42;100.00;101281.16;4986224;28;20056;-78
2022/10/25 07:29:19;;;;;;;12.23;3.15;;;;;;;12.40;100.00;101288.28;4996207;28;20053;-77
2022/10/25 07:31:44;;;;;;;9.23;1.77;;;;;;;12.45;100.00;101289.44;4994587;28;20032;-76
2022/10/25 07:34:12;;;;;;;10.38;2.67;;;;;;;12.46;100.00;101288.47;4971733;28;20530;-77
2022/10/25 07:36:38;;;;;;;11.85;2.67;;;;;;;12.52;100.00;101294.03;4989502;28;20044;-77
2022/10/25 07:39:03;;;;;;;7.30;1.95;;;;;;;12.50;100.00;101286.38;5002712;28;20026;-78
2022/10/25 07:41:29;;;;;;;10.30;2.20;;;;;;;12.63;100.00;101288.53;4987476;28;20035;-78
2022/10/25 07:43:54;;;;;;;8.50;2.00;;;;;;;12.59;100.00;101290.63;5005755;28;20038;-76
2022/10/25 07:46:20;;;;;;;10.50;2.33;;;;;;;12.57;100.00;101289.97;5007473;28;20030;-83
2022/10/25 07:48:46;;;;;;;8.65;2.05;;;;;;;12.70;100.00;101288.72;4996156;28;20621;-78
2022/10/25 07:51:13;;;;;;;9.50;3.05;;;;;;;12.77;100.00;101298.34;5001098;28;20072;-77
2022/10/25 07:53:39;;;;;;;16.88;5.70;;;;;;;13.04;100.00;101292.06;4985132;28;20048;-77
2022/10/25 07:56:06;;;;;;;20.30;8.50;;;;;;;13.32;100.00;101294.41;5006977;28;20034;-77
2022/10/25 07:58:31;;;;;;;7.47;2.83;;;;;;;13.67;100.00;101286.41;5001468;28;20022;-84
2022/10/25 08:01:06;;;;;;;13.27;4.15;;;;;;;14.22;100.00;101290.84;4998494;28;20088;-77
2022/10/25 08:03:32;;;;;;;19.77;5.90;;;;;;;14.73;96.21;101293.13;4989683;28;20066;-78
2022/10/25 08:05:58;;;;;;;8.13;2.13;;;;;;;15.22;93.20;101295.47;4997858;28;20041;-77
2022/10/25 08:08:24;;;;;;;9.60;1.88;;;;;;;15.57;90.20;101287.97;4983149;28;20383;-79
2022/10/25 08:10:51;;;;;;;8.13;2.60;;;;;;;15.84;88.32;101288.41;5001305;28;20049;-81
2022/10/25 08:13:18;;;;;;;8.50;2.63;;;;;;;16.21;85.71;101291.97;5003688;28;20558;-76
2022/10/25 08:15:51;;;;;;;10.00;2.47;;;;;;;16.20;85.82;101290.31;4986250;28;20121;-77
2022/10/25 08:18:17;;;;;;;9.32;2.50;;;;;;;16.68;83.96;101283.66;4990538;28;20475;-77
2022/10/25 08:20:42;;;;;;;7.10;1.40;;;;;;;16.82;81.62;101289.91;4991198;28;20049;-77
2022/10/25 08:23:07;;;;;;;8.30;1.40;;;;;;;17.01;80.73;101285.03;4985401;28;20116;-77
2022/10/25 08:25:33;;;;;;;9.50;1.63;;;;;;;17.13;80.03;101276.50;4983666;28;20042;-78
2022/10/25 08:27:58;;;;;;;4.47;0.80;;;;;;;17.13;80.21;101284.34;5001902;28;20592;-76
2022/10/25 08:30:24;;;;;;;7.53;1.50;;;;;;;16.97;80.48;101294.28;4981604;28;20034;-77
2022/10/25 08:32:50;;;;;;;8.00;1.83;;;;;;;16.27;82.48;101293.84;4979583;28;20034;-77
2022/10/25 08:35:15;;;;;;;12.50;1.40;;;;;;;16.25;83.77;101304.47;5002176;28;20173;-79
2022/10/25 08:37:41;;;;;;;8.18;1.40;;;;;;;16.61;82.31;101287.22;4999398;28;20053;-77
2022/10/25 08:40:14;;;;;;;9.95;1.63;;;;;;;16.83;80.50;101299.38;5005326;28;20038;-80
2022/10/25 08:43:18;;;;;;;5.57;1.10;;;;;;;16.62;80.84;101296.69;4990021;28;20045;-76
2022/10/25 08:46:03;;;;;;;7.70;1.65;;;;;;;16.71;80.82;101295.59;5000835;28;20038;-78
2022/10/25 08:48:38;;;;;;;5.75;1.23;;;;;;;16.99;80.88;101305.38;4991124;28;20038;-77
2022/10/25 08:51:20;;;;;;;4.85;1.30;;;;;;;16.84;80.09;101303.63;4987370;28;20047;-77
2022/10/25 08:53:50;;;;;;;16.23;1.75;;;;;;;16.68;80.77;101306.44;4996381;28;20069;-79
2022/10/25 08:56:18;;;;;;;7.07;1.30;;;;;;;16.30;81.28;101307.38;4989385;28;20045;-81
2022/10/25 08:58:59;;;;;;;7.88;1.60;;;;;;;16.32;82.92;101309.81;4980664;28;20034;-78
2022/10/25 09:01:35;;;;;;;6.65;1.20;;;;;;;16.29;82.98;101310.16;4984329;28;20438;-77
2022/10/25 09:04:00;;;;;;;3.45;1.13;;;;;;;16.06;83.96;101312.88;4982178;28;20053;-78
2022/10/25 09:07:00;;;;;;;6.60;0.98;;;;;;;15.89;85.08;101318.25;4977580;28;20041;-77
2022/10/25 09:09:51;;;;;;;6.13;1.73;;;;;;;15.77;84.76;101322.31;5004379;28;20050;-76
2022/10/25 09:12:42;;;;;;;8.10;1.23;;;;;;;15.61;85.60;101331.06;5003164;28;20382;-77
2022/10/25 09:15:25;;;;;;;4.78;1.20;;;;;;;15.57;85.80;101332.41;5001250;28;20109;-82
2022/10/25 09:17:52;;;;;;;6.72;1.30;;;;;;;15.50;87.02;101332.31;4992937;28;20030;-78
2022/10/25 09:20:40;;;;;;;8.40;1.63;;;;;;;15.22;88.07;101339.88;5006921;28;20054;-82
2022/10/25 09:23:29;;;;;;;5.80;1.00;;;;;;;15.18;87.42;101343.78;4992265;28;20045;-79
2022/10/25 09:26:01;;;;;;;6.03;1.40;;;;;;;15.17;88.26;101336.97;5009456;28;20046;-77
2022/10/25 09:29:01;;;;;;;7.25;1.13;;;;;;;15.08;89.00;101344.00;4989134;28;20038;-80
2022/10/25 09:31:34;;;;;;;11.07;1.60;;;;;;;15.06;89.07;101337.34;5004192;28;20073;-77
2022/10/25 09:34:03;;;;;;;5.18;1.13;;;;;;;15.08;89.47;101345.81;4990853;28;20040;-76
2022/10/25 09:36:34;;;;;;;6.65;1.70;;;;;;;15.15;89.60;101352.00;5004994;28;20050;-76
2022/10/25 09:39:05;;;;;;;5.20;1.42;;;;;;;15.12;88.51;101347.09;4985666;28;20084;-83
2022/10/25 09:41:37;;;;;;;10.82;2.10;;;;;;;15.07;88.95;101352.03;4989470;28;20442;-78
2022/10/25 09:44:33;;;;;;;4.90;1.25;;;;;;;15.07;89.96;101352.03;4996142;28;20034;-77
2022/10/25 09:47:17;;;;;;;13.85;5.30;;;;;;;15.13;89.40;101357.38;5006757;28;20497;-77
2022/10/25 09:50:24;;;;;;;4.57;1.48;;;;;;;15.15;89.94;101355.41;5000258;28;20133;-77
2022/10/25 09:53:12;;;;;;;8.00;1.30;;;;;;;15.19;87.93;101351.47;5006185;28;20045;-77
2022/10/25 09:55:46;;;;;;;4.75;1.30;;;;;;;15.10;88.41;101362.13;4984157;28;20043;-78
2022/10/25 09:58:32;;;;;;;6.93;1.35;;;;;;;15.18;88.19;101367.28;4992203;28;20120;-77
2022/10/25 10:01:15;;;;;;;8.68;1.70;;;;;;;15.22;87.85;101366.00;5005673;28;20034;-77
2022/10/25 10:03:41;;;;;;;6.78;2.47;;;;;;;15.26;87.50;101372.50;4984727;28;20061;-79
2022/10/25 10:06:21;;;;;;;6.05;1.80;;;;;;;15.28;87.35;101377.56;4989984;28;21784;-79
2022/10/25 10:08:53;;;;;;;11.95;2.00;;;;;;;15.14;86.39;101379.09;4978803;28;20041;-78
2022/10/25 10:11:19;;;;;;;8.75;2.28;;;;;;;15.05;88.04;101369.66;4991570;28;20050;-78
2022/10/25 10:14:09;;;;;;;6.90;2.10;;;;;;;15.10;87.57;101365.53;4974513;28;20090;-80
2022/10/25 10:16:40;;;;;;;8.70;2.22;;;;;;;15.10;88.50;101377.81;4980034;28;20056;-79
2022/10/25 10:19:21;;;;;;;10.52;1.85;;;;;;;15.06;87.70;101372.09;5007955;28;20108;-78
2022/10/25 10:22:05;;;;;;;11.13;2.58;;;;;;;15.06;87.08;101373.91;4991427;28;20029;-77
2022/10/25 10:24:36;;;;;;;8.63;2.05;;;;;;;15.04;87.84;101379.31;4987998;28;20030;-76
2022/10/25 10:27:06;;;;;;;7.10;2.28;;;;;;;14.99;87.45;101376.38;5003325;28;20057;-77
2022/10/25 10:29:37;;;;;;;6.55;1.90;;;;;;;14.97;88.47;101387.03;4987013;28;20124;-78
2022/10/25 10:32:22;;;;;;;9.10;1.77;;;;;;;14.93;88.90;101377.88;4998412;28;20124;-78
2022/10/25 10:34:54;;;;;;;7.47;1.75;;;;;;;15.06;89.07;101374.72;4975000;28;20133;-77
2022/10/25 10:37:21;;;;;;;5.72;1.70;;;;;;;15.15;86.98;101378.09;5005866;28;20038;-79
2022/10/25 10:39:57;;;;;;;6.32;1.63;;;;;;;15.14;86.81;101373.84;4984618;28;20039;-80
2022/10/25 10:42:31;;;;;;;7.22;1.65;;;;;;;15.22;87.00;101375.59;4985745;28;20030;-79
2022/10/25 10:45:09;;;;;;;5.72;1.40;;;;;;;15.09;86.52;101382.22;4993188;28;20343;-78
2022/10/25 10:47:50;;;;;;;6.18;1.48;;;;;;;15.13;86.34;101387.91;5004129;28;20041;-77
2022/10/25 10:50:21;;;;;;;8.13;1.73;;;;;;;15.04;87.22;101386.34;4975658;28;20073;-78
2022/10/25 10:53:01;;;;;;;10.43;1.40;;;;;;;15.14;86.33;101389.53;5002887;28;20036;-77
2022/10/25 10:55:47;;;;;;;8.77;1.60;;;;;;;15.15;85.93;101389.38;4984241;28;20041;-82
2022/10/25 10:58:21;;;;;;;9.25;1.25;;;;;;;15.19;85.89;101401.09;5007170;28;20030;-79
2022/10/25 11:00:50;;;;;;;4.30;1.30;;;;;;;15.08;86.02;101398.06;4988995;28;20177;-81
2022/10/25 11:03:37;;;;;;;4.57;1.38;;;;;;;15.02;86.91;101393.53;4997559;28;20026;-77
2022/10/25 11:06:05;;;;;;;10.07;1.33;;;;;;;15.03;86.54;101389.91;5003567;28;20080;-80
2022/10/25 11:08:31;;;;;;;7.50;1.23;;;;;;;15.08;85.88;101398.88;4978894;28;20438;-81
2022/10/25 11:11:18;;;;;;;5.25;0.75;;;;;;;14.97;86.49;101384.41;4981753;28;20029;-78
2022/10/25 11:13:52;;;;;;;7.18;1.13;;;;;;;14.97;87.16;101396.63;4988123;28;20038;-78
2022/10/25 11:16:31;;;;;;;8.05;1.60;;;;;;;15.15;87.46;101391.16;4999707;28;20038;-79
2022/10/25 11:19:17;;;;;;;6.50;1.30;;;;;;;15.23;86.23;101393.72;4986232;28;20030;-82
2022/10/25 11:21:51;;;;;;;8.90;1.40;;;;;;;15.36;86.31;101396.59;5002086;28;20137;-82
2022/10/25 11:24:34;;;;;;;6.60;0.82;;;;;;;15.35;85.81;101389.75;4988457;28;20458;-77
2022/10/25 11:27:18;;;;;;;3.13;0.93;;;;;;;15.40;87.24;101384.00;4971209;28;20058;-77
2022/10/25 11:30:04;;;;;;;6.43;1.05;;;;;;;15.58;87.20;101396.78;4979180;28;20042;-81
2022/10/25 11:32:35;;;;;;;7.50;1.02;;;;;;;15.72;85.20;101393.38;5004172;28;20038;-77
2022/10/25 11:35:43;;;;;;;7.32;1.27;;;;;;;15.69;84.60;101385.91;4983147;28;20415;-78